createdAt,value
2023-03-15T00:00:52.236Z,40.16
2023-03-15T00:01:52.220Z,39.56
2023-03-15T00:02:52.329Z,39.76
2023-03-15T00:03:52.282Z,39.76
2023-03-15T00:04:52.262Z,39.76
2023-03-15T00:05:52.174Z,40.16
2023-03-15T00:06:52.186Z,39.36
2023-03-15T00:07:52.149Z,39.36
2023-03-15T00:08:52.227Z,39.56
2023-03-15T00:09:52.166Z,39.96
2023-03-15T00:10:52.144Z,39.96
2023-03-15T00:11:52.112Z,41.35
2023-03-15T00:12:52.124Z,40.16
2023-03-15T00:13:52.085Z,39.17
2023-03-15T00:14:52.100Z,39.36
2023-03-15T00:15:52.155Z,39.96
2023-03-15T00:16:52.177Z,40.36
2023-03-15T00:17:52.034Z,40.56
2023-03-15T00:18:52.037Z,39.96
2023-03-15T00:19:52.280Z,40.16
2023-03-15T00:20:52.124Z,40.95
2023-03-15T00:21:52.104Z,39.76
2023-03-15T00:22:52.096Z,39.36
2023-03-15T00:23:52.505Z,39.76
2023-03-15T00:24:51.955Z,38.97
2023-03-15T00:25:51.972Z,39.76
2023-03-15T00:26:51.934Z,40.36
2023-03-15T00:27:51.962Z,39.96
2023-03-15T00:28:51.927Z,39.56
2023-03-15T00:29:51.918Z,39.76
2023-03-15T00:30:51.979Z,39.76
2023-03-15T00:31:51.932Z,39.76
2023-03-15T00:32:51.928Z,39.17
2023-03-15T00:33:51.975Z,40.16
2023-03-15T00:34:51.890Z,40.95
2023-03-15T00:35:51.868Z,39.56
2023-03-15T00:36:51.834Z,39.17
2023-03-15T00:37:51.879Z,39.56
2023-03-15T00:38:51.904Z,39.76
2023-03-15T00:39:51.788Z,39.96
2023-03-15T00:40:51.815Z,39.76
2023-03-15T00:41:51.771Z,39.76
2023-03-15T00:42:51.842Z,40.36
2023-03-15T00:43:51.807Z,39.36
2023-03-15T00:44:51.742Z,40.16
2023-03-15T00:45:52.124Z,39.56
2023-03-15T00:46:51.844Z,40.16
2023-03-15T00:47:51.753Z,40.16
2023-03-15T00:48:51.726Z,39.76
2023-03-15T00:49:51.784Z,39.96
2023-03-15T00:50:51.712Z,39.96
2023-03-15T00:51:51.674Z,39.76
2023-03-15T00:52:51.671Z,39.36
2023-03-15T00:53:51.708Z,39.36
2023-03-15T00:54:51.634Z,40.36
2023-03-15T00:55:51.675Z,40.16
2023-03-15T00:56:51.634Z,40.16
2023-03-15T00:57:51.638Z,39.56
2023-03-15T00:58:51.661Z,39.76
2023-03-15T00:59:51.664Z,41.55
2023-03-15T01:00:52.598Z,39.17
2023-03-15T01:01:51.639Z,40.76
2023-03-15T01:02:51.571Z,39.76
2023-03-15T01:03:51.513Z,40.16
2023-03-15T01:04:51.563Z,40.36
2023-03-15T01:05:51.540Z,40.56
2023-03-15T01:06:51.548Z,40.36
2023-03-15T01:07:51.550Z,40.56
2023-03-15T01:08:51.578Z,40.36
2023-03-15T01:09:51.475Z,39.17
2023-03-15T01:10:51.478Z,40.16
2023-03-15T01:11:51.532Z,39.56
2023-03-15T01:12:51.484Z,40.16
2023-03-15T01:13:51.413Z,40.36
2023-03-15T01:14:51.471Z,41.35
2023-03-15T01:15:51.492Z,40.16
2023-03-15T01:16:51.449Z,40.56
2023-03-15T01:17:51.398Z,40.36
2023-03-15T01:18:51.386Z,40.36
2023-03-15T01:19:51.391Z,40.76
2023-03-15T01:20:51.458Z,39.76
2023-03-15T01:21:51.382Z,40.16
2023-03-15T01:22:51.383Z,39.96
2023-03-15T01:23:51.372Z,40.16
2023-03-15T01:24:51.327Z,40.76
2023-03-15T01:25:51.349Z,40.16
2023-03-15T01:26:51.318Z,40.16
2023-03-15T01:27:51.322Z,40.16
2023-03-15T01:28:51.308Z,42.35
2023-03-15T01:29:51.241Z,40.56
2023-03-15T01:30:51.290Z,41.15
2023-03-15T01:31:51.331Z,40.16
2023-03-15T01:32:51.256Z,40.56
2023-03-15T01:33:51.193Z,39.96
2023-03-15T01:34:51.207Z,40.95
2023-03-15T01:35:51.297Z,40.36
2023-03-15T01:36:51.167Z,40.76
2023-03-15T01:37:51.195Z,40.76
2023-03-15T01:38:51.191Z,40.36
2023-03-15T01:39:51.128Z,40.36
2023-03-15T01:40:51.128Z,40.76
2023-03-15T01:41:51.119Z,40.16
2023-03-15T01:42:51.120Z,40.16
2023-03-15T01:43:51.124Z,41.15
2023-03-15T01:44:51.124Z,40.56
2023-03-15T01:45:51.206Z,40.56
2023-03-15T01:46:51.285Z,41.35
2023-03-15T01:47:51.069Z,40.95
2023-03-15T01:48:51.031Z,40.76
2023-03-15T01:49:51.082Z,40.56
2023-03-15T01:50:51.070Z,40.76
2023-03-15T01:51:51.122Z,41.35
2023-03-15T01:52:51.027Z,41.35
2023-03-15T01:53:51.023Z,40.16
2023-03-15T01:54:51.075Z,40.76
2023-03-15T01:55:51.003Z,40.16
2023-03-15T01:56:51.052Z,40.36
2023-03-15T01:57:51.022Z,40.95
2023-03-15T01:58:50.934Z,41.55
2023-03-15T01:59:50.919Z,41.35
2023-03-15T02:00:50.945Z,40.95
2023-03-15T02:01:51.001Z,40.95
2023-03-15T02:02:50.984Z,40.36
2023-03-15T02:03:50.983Z,40.95
2023-03-15T02:04:50.902Z,40.36
2023-03-15T02:05:50.886Z,40.16
2023-03-15T02:06:50.888Z,41.15
2023-03-15T02:07:51.448Z,41.95
2023-03-15T02:08:50.835Z,40.56
2023-03-15T02:09:50.847Z,39.36
2023-03-15T02:10:50.828Z,41.15
2023-03-15T02:11:50.861Z,39.36
2023-03-15T02:12:50.807Z,40.56
2023-03-15T02:13:50.826Z,40.76
2023-03-15T02:14:50.784Z,39.96
2023-03-15T02:15:50.835Z,40.16
2023-03-15T02:16:50.948Z,40.16
2023-03-15T02:17:50.749Z,39.36
2023-03-15T02:18:50.767Z,40.16
2023-03-15T02:19:50.763Z,40.16
2023-03-15T02:20:50.736Z,42.35
2023-03-15T02:21:50.746Z,40.36
2023-03-15T02:22:50.713Z,40.76
2023-03-15T02:23:50.709Z,39.76
2023-03-15T02:24:50.686Z,38.97
2023-03-15T02:25:50.671Z,41.15
2023-03-15T02:26:50.696Z,40.95
2023-03-15T02:27:50.698Z,40.95
2023-03-15T02:28:50.710Z,40.95
2023-03-15T02:29:50.628Z,39.76
2023-03-15T02:30:50.635Z,39.36
2023-03-15T02:31:50.673Z,40.56
2023-03-15T02:32:50.637Z,40.95
2023-03-15T02:33:50.610Z,40.36
2023-03-15T02:34:50.607Z,40.56
2023-03-15T02:35:50.604Z,40.95
2023-03-15T02:36:50.578Z,40.36
2023-03-15T02:37:50.556Z,40.56
2023-03-15T02:38:50.565Z,41.55
2023-03-15T02:39:50.528Z,39.36
2023-03-15T02:40:50.487Z,40.76
2023-03-15T02:41:50.516Z,40.56
2023-03-15T02:42:50.516Z,41.75
2023-03-15T02:43:50.543Z,40.56
2023-03-15T02:44:50.518Z,40.16
2023-03-15T02:45:50.535Z,40.76
2023-03-15T02:46:50.491Z,40.56
2023-03-15T02:47:50.437Z,40.56
2023-03-15T02:48:50.419Z,40.36
2023-03-15T02:49:50.416Z,40.76
2023-03-15T02:50:50.448Z,38.97
2023-03-15T02:51:50.418Z,35.39
2023-03-15T02:52:50.371Z,40.16
2023-03-15T02:53:50.409Z,41.35
2023-03-15T02:54:50.452Z,41.15
2023-03-15T02:55:50.388Z,39.96
2023-03-15T02:56:50.412Z,40.76
2023-03-15T02:57:50.361Z,40.16
2023-03-15T02:58:50.328Z,39.96
2023-03-15T02:59:50.366Z,40.36
2023-03-15T03:00:50.401Z,40.36
2023-03-15T03:01:50.363Z,40.76
2023-03-15T03:02:50.323Z,40.16
2023-03-15T03:03:50.303Z,40.56
2023-03-15T03:04:50.311Z,40.56
2023-03-15T03:05:50.332Z,41.35
2023-03-15T03:06:50.238Z,40.36
2023-03-15T03:07:50.258Z,40.56
2023-03-15T03:08:50.228Z,40.56
2023-03-15T03:09:50.390Z,40.56
2023-03-15T03:10:50.207Z,40.36
2023-03-15T03:11:50.337Z,40.95
2023-03-15T03:12:50.259Z,40.56
2023-03-15T03:13:50.209Z,40.36
2023-03-15T03:14:50.226Z,40.16
2023-03-15T03:15:50.160Z,40.16
2023-03-15T03:16:50.178Z,40.16
2023-03-15T03:17:50.128Z,40.95
2023-03-15T03:18:50.103Z,40.95
2023-03-15T03:19:50.128Z,40.76
2023-03-15T03:20:50.148Z,40.36
2023-03-15T03:21:50.076Z,41.35
2023-03-15T03:22:50.064Z,40.76
2023-03-15T03:23:50.058Z,39.36
2023-03-15T03:24:50.097Z,41.95
2023-03-15T03:25:50.073Z,40.56
2023-03-15T03:26:50.055Z,40.36
2023-03-15T03:27:50.009Z,40.36
2023-03-15T03:28:50.036Z,40.36
2023-03-15T03:29:49.944Z,40.56
2023-03-15T03:30:50.006Z,40.56
2023-03-15T03:31:49.942Z,40.36
2023-03-15T03:32:49.973Z,40.36
2023-03-15T03:33:49.920Z,40.76
2023-03-15T03:34:49.968Z,40.36
2023-03-15T03:35:49.973Z,39.96
2023-03-15T03:36:49.943Z,40.16
2023-03-15T03:37:49.895Z,40.16
2023-03-15T03:38:49.912Z,40.76
2023-03-15T03:39:49.880Z,40.36
2023-03-15T03:40:49.948Z,40.36
2023-03-15T03:41:49.887Z,40.16
2023-03-15T03:42:49.900Z,40.36
2023-03-15T03:43:49.829Z,40.56
2023-03-15T03:44:49.839Z,39.76
2023-03-15T03:45:49.868Z,40.16
2023-03-15T03:46:49.786Z,40.56
2023-03-15T03:47:49.764Z,40.16
2023-03-15T03:48:49.767Z,40.95
2023-03-15T03:49:49.795Z,40.95
2023-03-15T03:50:49.765Z,39.76
2023-03-15T03:51:49.776Z,40.56
2023-03-15T03:52:49.758Z,40.56
2023-03-15T03:53:49.739Z,40.95
2023-03-15T03:54:49.745Z,40.95
2023-03-15T03:55:49.724Z,40.36
2023-03-15T03:56:49.687Z,41.15
2023-03-15T03:57:49.716Z,40.95
2023-03-15T03:58:49.666Z,40.56
2023-03-15T03:59:49.649Z,40.76
2023-03-15T04:00:49.673Z,40.36
2023-03-15T04:01:49.665Z,39.96
2023-03-15T04:02:49.667Z,40.36
2023-03-15T04:03:49.707Z,40.76
2023-03-15T04:04:50.010Z,40.16
2023-03-15T04:05:49.675Z,40.56
2023-03-15T04:06:49.565Z,40.56
2023-03-15T04:07:49.558Z,40.56
2023-03-15T04:08:49.574Z,40.95
2023-03-15T04:09:49.550Z,40.76
2023-03-15T04:10:49.543Z,39.96
2023-03-15T04:11:49.545Z,39.56
2023-03-15T04:12:49.533Z,39.17
2023-03-15T04:13:49.545Z,40.76
2023-03-15T04:14:49.507Z,40.56
2023-03-15T04:15:49.549Z,41.35
2023-03-15T04:16:49.484Z,39.76
2023-03-15T04:17:49.486Z,40.56
2023-03-15T04:18:49.485Z,40.36
2023-03-15T04:19:49.542Z,39.76
2023-03-15T04:20:49.519Z,39.96
2023-03-15T04:21:49.447Z,39.56
2023-03-15T04:22:49.457Z,40.16
2023-03-15T04:23:49.453Z,39.76
2023-03-15T04:24:49.397Z,39.96
2023-03-15T04:25:49.382Z,40.56
2023-03-15T04:26:49.464Z,40.16
2023-03-15T04:27:49.403Z,40.16
2023-03-15T04:28:49.368Z,40.76
2023-03-15T04:29:49.320Z,40.36
2023-03-15T04:30:49.380Z,40.76
2023-03-15T04:31:49.370Z,40.76
2023-03-15T04:32:49.352Z,39.76
2023-03-15T04:33:49.307Z,40.36
2023-03-15T04:34:49.359Z,41.75
2023-03-15T04:35:49.320Z,40.36
2023-03-15T04:36:49.299Z,40.36
2023-03-15T04:37:49.277Z,39.76
2023-03-15T04:38:49.257Z,40.76
2023-03-15T04:39:49.239Z,40.36
2023-03-15T04:40:49.255Z,40.56
2023-03-15T04:41:49.238Z,40.16
2023-03-15T04:42:49.260Z,40.76
2023-03-15T04:43:49.225Z,40.95
2023-03-15T04:44:49.184Z,39.96
2023-03-15T04:45:49.180Z,40.16
2023-03-15T04:46:49.268Z,40.36
2023-03-15T04:47:49.183Z,39.56
2023-03-15T04:48:49.752Z,40.56
2023-03-15T04:49:49.191Z,39.96
2023-03-15T04:50:49.122Z,40.36
2023-03-15T04:51:49.146Z,40.76
2023-03-15T04:52:49.140Z,40.36
2023-03-15T04:53:49.126Z,40.76
2023-03-15T04:54:49.097Z,41.75
2023-03-15T04:55:49.149Z,40.36
2023-03-15T04:56:49.072Z,40.56
2023-03-15T04:57:49.057Z,40.95
2023-03-15T04:58:49.072Z,40.16
2023-03-15T04:59:49.043Z,40.16
2023-03-15T05:00:49.102Z,40.76
2023-03-15T05:01:49.284Z,40.95
2023-03-15T05:02:49.029Z,39.76
2023-03-15T05:03:48.992Z,39.96
2023-03-15T05:04:49.100Z,40.36
2023-03-15T05:05:48.956Z,40.95
2023-03-15T05:06:48.963Z,40.56
2023-03-15T05:07:48.929Z,40.76
2023-03-15T05:08:48.997Z,40.16
2023-03-15T05:09:48.989Z,40.16
2023-03-15T05:10:48.989Z,39.96
2023-03-15T05:11:48.850Z,40.56
2023-03-15T05:12:48.882Z,39.76
2023-03-15T05:13:48.846Z,41.15
2023-03-15T05:14:48.884Z,39.96
2023-03-15T05:15:48.851Z,40.56
2023-03-15T05:16:48.819Z,41.75
2023-03-15T05:17:48.871Z,39.96
2023-03-15T05:18:48.824Z,39.96
2023-03-15T05:19:48.760Z,40.36
2023-03-15T05:20:48.752Z,40.95
2023-03-15T05:21:48.764Z,40.36
2023-03-15T05:22:48.781Z,39.56
2023-03-15T05:23:48.764Z,40.76
2023-03-15T05:24:48.730Z,40.36
2023-03-15T05:25:48.691Z,39.56
2023-03-15T05:26:48.810Z,40.56
2023-03-15T05:27:48.746Z,40.56
2023-03-15T05:28:48.767Z,40.16
2023-03-15T05:29:48.667Z,40.76
2023-03-15T05:30:48.679Z,40.16
2023-03-15T05:31:48.711Z,40.36
2023-03-15T05:32:48.707Z,40.16
2023-03-15T05:33:48.620Z,40.16
2023-03-15T05:34:48.613Z,40.76
2023-03-15T05:35:48.651Z,40.16
2023-03-15T05:36:48.579Z,40.95
2023-03-15T05:37:48.617Z,40.76
2023-03-15T05:38:48.621Z,40.16
2023-03-15T05:39:48.570Z,39.36
2023-03-15T05:40:48.555Z,40.16
2023-03-15T05:41:48.554Z,40.76
2023-03-15T05:42:48.660Z,40.16
2023-03-15T05:43:48.659Z,40.76
2023-03-15T05:44:48.525Z,39.76
2023-03-15T05:45:48.571Z,42.35
2023-03-15T05:46:48.615Z,40.36
2023-03-15T05:47:48.481Z,40.76
2023-03-15T05:48:48.500Z,39.36
2023-03-15T05:49:48.652Z,40.56
2023-03-15T05:50:48.464Z,41.15
2023-03-15T05:51:48.458Z,40.36
2023-03-15T05:52:48.478Z,39.56
2023-03-15T05:53:48.464Z,40.36
2023-03-15T05:54:48.438Z,39.96
2023-03-15T05:55:48.404Z,39.96
2023-03-15T05:56:50.015Z,39.56
2023-03-15T05:57:48.384Z,40.16
2023-03-15T05:58:48.340Z,40.76
2023-03-15T05:59:48.317Z,39.76
2023-03-15T06:00:48.347Z,40.36
2023-03-15T06:01:48.334Z,40.16
2023-03-15T06:02:48.296Z,39.76
2023-03-15T06:03:48.412Z,39.36
2023-03-15T06:04:48.804Z,40.16
2023-03-15T06:05:48.275Z,40.36
2023-03-15T06:06:48.277Z,40.76
2023-03-15T06:07:48.268Z,40.16
2023-03-15T06:08:48.327Z,40.16
2023-03-15T06:09:48.265Z,40.76
2023-03-15T06:10:48.307Z,39.56
2023-03-15T06:11:48.244Z,40.76
2023-03-15T06:12:48.216Z,41.15
2023-03-15T06:13:48.182Z,38.37
2023-03-15T06:14:48.204Z,40.16
2023-03-15T06:15:48.173Z,39.96
2023-03-15T06:16:48.228Z,40.36
2023-03-15T06:17:48.138Z,40.56
2023-03-15T06:18:48.150Z,39.56
2023-03-15T06:19:48.163Z,39.96
2023-03-15T06:20:48.145Z,40.95
2023-03-15T06:21:48.128Z,40.76
2023-03-15T06:22:48.095Z,40.76
2023-03-15T06:23:48.152Z,40.16
2023-03-15T06:24:48.121Z,42.35
2023-03-15T06:25:48.067Z,40.36
2023-03-15T06:26:48.052Z,40.56
2023-03-15T06:27:48.089Z,39.56
2023-03-15T06:28:48.055Z,40.56
2023-03-15T06:29:48.019Z,39.56
2023-03-15T06:30:48.186Z,39.96
2023-03-15T06:31:47.991Z,40.36
2023-03-15T06:32:48.016Z,40.16
2023-03-15T06:33:47.965Z,40.36
2023-03-15T06:34:48.017Z,40.36
2023-03-15T06:35:48.071Z,40.16
2023-03-15T06:36:47.954Z,40.76
2023-03-15T06:37:47.948Z,40.76
2023-03-15T06:38:48.016Z,40.16
2023-03-15T06:39:47.934Z,39.56
2023-03-15T06:40:47.915Z,40.36
2023-03-15T06:41:47.915Z,40.95
2023-03-15T06:42:47.914Z,40.16
2023-03-15T06:43:47.876Z,39.96
2023-03-15T06:44:49.231Z,40.56
2023-03-15T06:45:47.894Z,40.56
2023-03-15T06:46:47.843Z,40.36
2023-03-15T06:47:47.799Z,40.56
2023-03-15T06:48:47.793Z,40.56
2023-03-15T06:49:47.802Z,40.16
2023-03-15T06:50:48.141Z,40.76
2023-03-15T06:51:47.798Z,40.36
2023-03-15T06:52:47.784Z,39.76
2023-03-15T06:53:47.896Z,40.16
2023-03-15T06:54:47.759Z,41.15
2023-03-15T06:55:47.779Z,39.96
2023-03-15T06:56:47.742Z,40.56
2023-03-15T06:57:47.786Z,39.96
2023-03-15T06:58:47.744Z,40.36
2023-03-15T06:59:47.723Z,40.76
2023-03-15T07:00:47.713Z,40.16
2023-03-15T07:01:47.718Z,40.36
2023-03-15T07:02:47.721Z,40.36
2023-03-15T07:03:47.728Z,40.16
2023-03-15T07:04:47.732Z,40.36
2023-03-15T07:05:47.685Z,39.76
2023-03-15T07:06:47.656Z,39.96
2023-03-15T07:07:47.637Z,39.17
2023-03-15T07:08:47.659Z,39.76
2023-03-15T07:09:47.614Z,41.15
2023-03-15T07:10:47.610Z,40.36
2023-03-15T07:11:47.611Z,40.36
2023-03-15T07:12:47.630Z,40.16
2023-03-15T07:13:47.584Z,40.56
2023-03-15T07:14:47.580Z,39.56
2023-03-15T07:15:47.568Z,40.16
2023-03-15T07:16:47.579Z,40.76
2023-03-15T07:17:47.498Z,39.56
2023-03-15T07:18:47.478Z,41.55
2023-03-15T07:19:56.318Z,39.17
2023-03-15T07:20:48.486Z,40.76
2023-03-15T07:21:47.498Z,39.96
2023-03-15T07:22:47.499Z,41.75
2023-03-15T07:23:47.522Z,40.16
2023-03-15T07:24:47.477Z,40.16
2023-03-15T07:25:54.737Z,40.76
2023-03-15T07:26:48.455Z,39.76
2023-03-15T07:27:47.453Z,40.36
2023-03-15T07:28:47.537Z,41.55
2023-03-15T07:29:47.502Z,40.36
2023-03-15T07:30:47.407Z,39.96
2023-03-15T07:31:47.754Z,40.56
2023-03-15T07:32:47.504Z,39.96
2023-03-15T07:33:47.389Z,38.97
2023-03-15T07:34:47.352Z,38.37
2023-03-15T07:35:47.372Z,40.36
2023-03-15T07:36:47.446Z,38.77
2023-03-15T07:37:47.368Z,41.15
2023-03-15T07:38:47.368Z,40.56
2023-03-15T07:39:47.934Z,40.76
2023-03-15T07:40:47.359Z,40.16
2023-03-15T07:41:47.283Z,40.36
2023-03-15T07:42:47.365Z,40.76
2023-03-15T07:43:47.293Z,40.56
2023-03-15T07:44:47.260Z,40.56
2023-03-15T07:45:47.291Z,39.56
2023-03-15T07:46:47.243Z,39.76
2023-03-15T07:47:47.353Z,40.36
2023-03-15T07:48:47.207Z,39.96
2023-03-15T07:49:47.792Z,38.97
2023-03-15T07:50:47.374Z,41.55
2023-03-15T07:51:47.497Z,41.75
2023-03-15T07:52:47.186Z,39.96
2023-03-15T07:53:47.181Z,40.16
2023-03-15T07:54:47.206Z,39.56
2023-03-15T07:55:47.150Z,40.36
2023-03-15T07:56:47.142Z,41.55
2023-03-15T07:57:49.787Z,40.36
2023-03-15T07:58:47.113Z,39.76
2023-03-15T07:59:47.148Z,39.96
2023-03-15T08:00:47.226Z,39.96
2023-03-15T08:01:47.086Z,40.16
2023-03-15T08:02:47.151Z,39.96
2023-03-15T08:03:48.574Z,39.96
2023-03-15T08:04:47.413Z,40.16
2023-03-15T08:05:47.268Z,39.36
2023-03-15T08:06:47.104Z,39.56
2023-03-15T08:07:47.456Z,39.56
2023-03-15T08:08:47.216Z,40.95
2023-03-15T08:09:47.002Z,39.96
2023-03-15T08:10:47.460Z,40.56
2023-03-15T08:11:47.401Z,40.76
2023-03-15T08:12:47.210Z,40.16
2023-03-15T08:13:47.107Z,39.96
2023-03-15T08:14:46.923Z,40.36
2023-03-15T08:15:47.368Z,40.76
2023-03-15T08:16:47.016Z,40.95
2023-03-15T08:17:47.040Z,40.56
2023-03-15T08:18:47.144Z,40.36
2023-03-15T08:19:46.877Z,40.16
2023-03-15T08:20:47.429Z,40.76
2023-03-15T08:21:46.826Z,41.95
2023-03-15T08:22:46.871Z,40.36
2023-03-15T08:23:46.847Z,40.56
2023-03-15T08:24:46.913Z,40.36
2023-03-15T08:25:46.791Z,40.16
2023-03-15T08:26:46.773Z,39.96
2023-03-15T08:27:46.946Z,39.96
2023-03-15T08:28:47.457Z,40.56
2023-03-15T08:29:46.938Z,39.96
2023-03-15T08:30:46.762Z,39.76
2023-03-15T08:31:47.176Z,39.36
2023-03-15T08:32:46.830Z,39.56
2023-03-15T08:33:47.175Z,41.75
2023-03-15T08:34:46.651Z,40.76
2023-03-15T08:35:46.689Z,39.76
2023-03-15T08:36:46.884Z,40.56
2023-03-15T08:37:46.849Z,38.97
2023-03-15T08:38:46.731Z,39.56
2023-03-15T08:39:47.040Z,40.56
2023-03-15T08:40:47.192Z,40.16
2023-03-15T08:41:46.742Z,39.36
2023-03-15T08:42:46.586Z,39.56
2023-03-15T08:43:46.849Z,39.17
2023-03-15T08:44:46.615Z,39.76
2023-03-15T08:46:00.260Z,39.56
2023-03-15T08:46:47.667Z,39.36
2023-03-15T08:47:46.631Z,38.77
2023-03-15T08:48:46.812Z,40.36
2023-03-15T08:49:46.551Z,38.57
2023-03-15T08:50:46.588Z,38.97
2023-03-15T08:51:46.564Z,38.77
2023-03-15T08:52:46.664Z,39.36
2023-03-15T08:53:46.807Z,40.56
2023-03-15T08:54:46.517Z,38.57
2023-03-15T08:55:46.488Z,38.37
2023-03-15T08:56:46.515Z,38.17
2023-03-15T08:57:46.606Z,38.37
2023-03-15T08:58:46.466Z,38.77
2023-03-15T08:59:46.472Z,38.17
2023-03-15T09:00:46.467Z,37.97
2023-03-15T09:01:46.434Z,38.17
2023-03-15T09:02:46.399Z,38.57
2023-03-15T09:03:46.497Z,37.57
2023-03-15T09:04:46.413Z,37.57
2023-03-15T09:05:46.387Z,38.37
2023-03-15T09:06:46.368Z,38.97
2023-03-15T09:07:46.362Z,37.77
2023-03-15T09:08:46.365Z,38.17
2023-03-15T09:09:46.349Z,38.57
2023-03-15T09:10:46.337Z,37.57
2023-03-15T09:11:46.381Z,37.57
2023-03-15T09:12:46.310Z,38.57
2023-03-15T09:13:46.326Z,39.17
2023-03-15T09:14:46.334Z,38.37
2023-03-15T09:15:46.264Z,38.37
2023-03-15T09:16:46.300Z,37.97
2023-03-15T09:17:46.287Z,38.17
2023-03-15T09:18:46.286Z,37.97
2023-03-15T09:19:46.209Z,40.16
2023-03-15T09:20:46.201Z,37.97
2023-03-15T09:21:46.294Z,39.36
2023-03-15T09:22:46.189Z,38.77
2023-03-15T09:23:46.152Z,37.97
2023-03-15T09:24:46.162Z,38.77
2023-03-15T09:25:46.174Z,36.78
2023-03-15T09:26:46.199Z,38.97
2023-03-15T09:27:46.204Z,33.20
2023-03-15T09:28:46.112Z,38.37
2023-03-15T09:29:46.438Z,38.77
2023-03-15T09:30:46.367Z,38.17
2023-03-15T09:31:46.116Z,38.37
2023-03-15T09:32:46.255Z,38.57
2023-03-15T09:33:46.077Z,37.97
2023-03-15T09:34:46.067Z,37.97
2023-03-15T09:35:46.068Z,37.57
2023-03-15T09:36:48.677Z,38.77
2023-03-15T09:37:46.086Z,37.97
2023-03-15T09:38:46.054Z,38.77
2023-03-15T09:39:46.294Z,38.77
2023-03-15T09:40:46.078Z,38.17
2023-03-15T09:41:46.206Z,38.37
2023-03-15T09:42:45.947Z,37.97
2023-03-15T09:43:46.005Z,38.37
2023-03-15T09:44:45.964Z,37.38
2023-03-15T09:45:45.985Z,39.96
2023-03-15T09:46:46.030Z,37.77
2023-03-15T09:47:45.953Z,38.17
2023-03-15T09:48:45.884Z,37.77
2023-03-15T09:49:45.901Z,38.77
2023-03-15T09:50:45.864Z,39.36
2023-03-15T09:51:45.904Z,38.77
2023-03-15T09:52:45.911Z,38.97
2023-03-15T09:53:45.870Z,37.38
2023-03-15T09:54:45.844Z,38.17
2023-03-15T09:55:45.880Z,38.37
2023-03-15T09:56:45.834Z,37.97
2023-03-15T09:57:45.865Z,37.77
2023-03-15T09:58:45.810Z,39.17
2023-03-15T09:59:45.800Z,38.37
2023-03-15T10:00:45.804Z,39.96
2023-03-15T10:01:45.859Z,40.95
2023-03-15T10:02:45.779Z,40.76
2023-03-15T10:03:45.873Z,41.35
2023-03-15T10:04:45.701Z,42.15
2023-03-15T10:05:45.692Z,41.15
2023-03-15T10:06:45.699Z,41.55
2023-03-15T10:07:45.739Z,41.75
2023-03-15T10:08:45.678Z,41.75
2023-03-15T10:09:45.696Z,41.55
2023-03-15T10:10:45.731Z,40.95
2023-03-15T10:11:45.710Z,40.95
2023-03-15T10:12:45.650Z,40.56
2023-03-15T10:13:45.629Z,36.18
2023-03-15T10:14:45.629Z,40.76
2023-03-15T10:15:45.688Z,41.15
2023-03-15T10:16:45.628Z,39.36
2023-03-15T10:17:45.628Z,40.56
2023-03-15T10:18:45.596Z,40.56
2023-03-15T10:19:45.585Z,40.56
2023-03-15T10:20:45.583Z,40.95
2023-03-15T10:21:45.590Z,41.95
2023-03-15T10:22:45.623Z,41.35
2023-03-15T10:23:45.548Z,42.74
2023-03-15T10:24:45.538Z,42.15
2023-03-15T10:25:45.559Z,41.75
2023-03-15T10:27:45.834Z,42.15
2023-03-15T10:28:45.960Z,42.74
2023-03-15T10:29:45.494Z,41.15
2023-03-15T10:30:45.462Z,40.76
2023-03-15T10:31:45.719Z,40.76
2023-03-15T10:32:45.503Z,40.95
2023-03-15T10:33:45.427Z,41.35
2023-03-15T10:34:47.741Z,42.35
2023-03-15T10:35:45.434Z,40.56
2023-03-15T10:36:45.477Z,42.15
2023-03-15T10:37:45.720Z,42.15
2023-03-15T10:38:45.359Z,42.54
2023-03-15T10:39:45.351Z,42.54
2023-03-15T10:40:45.404Z,42.35
2023-03-15T10:41:45.941Z,41.55
2023-03-15T10:42:45.400Z,41.55
2023-03-15T10:43:45.443Z,41.95
2023-03-15T10:44:45.397Z,40.16
2023-03-15T10:45:45.256Z,40.76
2023-03-15T10:46:45.510Z,39.76
2023-03-15T10:47:53.844Z,40.16
2023-03-15T10:48:46.258Z,40.16
2023-03-15T10:49:45.264Z,40.56
2023-03-15T10:50:45.270Z,41.55
2023-03-15T10:51:45.356Z,39.96
2023-03-15T10:52:45.777Z,40.36
2023-03-15T10:53:45.321Z,39.36
2023-03-15T10:54:46.441Z,38.37
2023-03-15T10:55:45.192Z,40.56
2023-03-15T10:56:45.330Z,40.36
2023-03-15T10:57:45.434Z,39.76
2023-03-15T10:58:45.233Z,41.95
2023-03-15T10:59:45.225Z,42.35
2023-03-15T11:00:45.665Z,41.35
2023-03-15T11:01:45.209Z,39.76
2023-03-15T11:02:45.292Z,41.15
2023-03-15T11:03:45.206Z,40.36
2023-03-15T11:04:45.121Z,40.95
2023-03-15T11:05:45.351Z,40.95
2023-03-15T11:06:45.065Z,40.16
2023-03-15T11:07:45.135Z,40.95
2023-03-15T11:08:45.675Z,41.55
2023-03-15T11:09:45.088Z,42.15
2023-03-15T11:10:45.358Z,42.74
2023-03-15T11:11:45.050Z,43.74
2023-03-15T11:12:44.959Z,39.56
2023-03-15T11:13:45.172Z,40.16
2023-03-15T11:14:45.494Z,42.54
2023-03-15T11:15:45.008Z,40.16
2023-03-15T11:16:44.956Z,42.54
2023-03-15T11:17:45.078Z,42.35
2023-03-15T11:18:44.928Z,40.56
2023-03-15T11:19:45.020Z,41.95
2023-03-15T11:20:44.896Z,42.54
2023-03-15T11:21:44.895Z,42.15
2023-03-15T11:22:44.960Z,40.95
2023-03-15T11:23:44.905Z,40.56
2023-03-15T11:24:45.062Z,41.95
2023-03-15T11:25:44.863Z,42.94
2023-03-15T11:26:44.832Z,41.15
2023-03-15T11:27:44.865Z,42.74
2023-03-15T11:28:44.941Z,41.15
2023-03-15T11:29:44.797Z,42.35
2023-03-15T11:30:46.264Z,44.73
2023-03-15T11:31:44.843Z,40.76
2023-03-15T11:32:44.863Z,41.75
2023-03-15T11:33:44.780Z,42.94
2023-03-15T11:34:44.751Z,44.14
2023-03-15T11:35:44.784Z,40.95
2023-03-15T11:36:45.349Z,45.13
2023-03-15T11:37:44.727Z,41.95
2023-03-15T11:38:45.908Z,42.54
2023-03-15T11:39:45.105Z,45.13
2023-03-15T11:40:44.823Z,46.12
2023-03-15T11:41:45.300Z,43.54
2023-03-15T11:42:44.749Z,44.14
2023-03-15T11:43:45.660Z,46.92
2023-03-15T11:44:44.679Z,42.54
2023-03-15T11:45:44.835Z,41.35
2023-03-15T11:46:44.778Z,39.56
2023-03-15T11:47:44.738Z,40.95
2023-03-15T11:48:44.607Z,41.35
2023-03-15T11:49:45.240Z,39.96
2023-03-15T11:50:45.313Z,40.95
2023-03-15T11:51:44.819Z,42.74
2023-03-15T11:52:44.548Z,41.75
2023-03-15T11:53:44.538Z,41.55
2023-03-15T11:54:44.750Z,41.55
2023-03-15T11:55:44.579Z,41.95
2023-03-15T11:56:44.536Z,39.96
2023-03-15T11:57:44.530Z,42.15
2023-03-15T11:58:44.561Z,41.75
2023-03-15T11:59:44.577Z,41.15
2023-03-15T12:00:44.474Z,42.15
2023-03-15T12:01:44.427Z,41.55
2023-03-15T12:02:44.455Z,41.15
2023-03-15T12:03:44.509Z,41.55
2023-03-15T12:04:44.414Z,40.56
2023-03-15T12:05:44.409Z,41.95
2023-03-15T12:06:44.405Z,41.35
2023-03-15T12:07:44.368Z,38.77
2023-03-15T12:08:44.379Z,40.56
2023-03-15T12:09:44.372Z,40.76
2023-03-15T12:10:44.544Z,39.76
2023-03-15T12:11:44.357Z,40.36
2023-03-15T12:12:44.361Z,41.15
2023-03-15T12:13:44.329Z,40.76
2023-03-15T12:14:44.319Z,40.95
2023-03-15T12:15:44.301Z,41.15
2023-03-15T12:16:44.266Z,41.55
2023-03-15T12:17:44.303Z,41.35
2023-03-15T12:18:44.288Z,41.15
2023-03-15T12:19:44.246Z,42.15
2023-03-15T12:20:44.226Z,40.36
2023-03-15T12:21:44.226Z,40.56
2023-03-15T12:22:44.242Z,38.37
2023-03-15T12:23:44.199Z,38.97
2023-03-15T12:24:44.220Z,39.56
2023-03-15T12:25:54.442Z,42.94
2023-03-15T12:26:45.268Z,43.74
2023-03-15T12:27:44.172Z,45.92
2023-03-15T12:28:44.190Z,46.12
2023-03-15T12:29:45.698Z,47.32
2023-03-15T12:30:44.216Z,44.93
2023-03-15T12:31:44.118Z,45.92
2023-03-15T12:32:44.165Z,46.12
2023-03-15T12:33:44.125Z,45.13
2023-03-15T12:34:44.095Z,44.73
2023-03-15T12:35:44.074Z,46.12
2023-03-15T12:36:44.080Z,43.94
2023-03-15T12:37:44.034Z,44.93
2023-03-15T12:38:44.025Z,45.13
2023-03-15T12:39:44.073Z,44.14
2023-03-15T12:40:44.080Z,45.13
2023-03-15T12:41:44.138Z,44.14
2023-03-15T12:42:44.055Z,45.13
2023-03-15T12:43:44.054Z,44.73
2023-03-15T12:44:44.028Z,44.33
2023-03-15T12:45:44.084Z,44.33
2023-03-15T12:46:44.005Z,46.92
2023-03-15T12:47:44.024Z,45.92
2023-03-15T12:48:43.949Z,41.95
2023-03-15T12:49:43.922Z,44.53
2023-03-15T12:50:43.912Z,45.13
2023-03-15T12:51:43.897Z,42.94
2023-03-15T12:52:43.951Z,43.54
2023-03-15T12:53:43.933Z,43.34